Time;durP1;ratioP1;P1;durP2;ratioP2;P2;SDS_P1;SDS_P2;PMS_P1;PMS_P2;Temp;Humidity;BMP_temperature;BMP_pressure;BME280_temperature;BME280_humidity;BME280_pressure;Samples;Min_cycle;Max_cycle;Signal;HPM_P1;HPM_P2
2023/01/19 00:00:14;;;;;;;4.55;4.25;;;;;;;-0.31;100.00;99804.03;6018832;23;20026;-66
2023/01/19 00:02:42;;;;;;;3.42;3.22;;;;;;;-0.42;100.00;99801.72;6002242;23;20026;-66
2023/01/19 00:05:08;;;;;;;3.70;3.42;;;;;;;-0.35;100.00;99799.84;6031088;23;20346;-67
2023/01/19 00:07:35;;;;;;;2.92;2.83;;;;;;;-0.99;100.00;99711.88;6004778;23;20023;-67
2023/01/19 00:10:02;;;;;;;3.20;3.10;;;;;;;-0.46;100.00;99799.22;6028213;23;20027;-67
2023/01/19 00:12:28;;;;;;;3.20;3.10;;;;;;;-0.48;100.00;99800.97;5999356;23;20037;-67
2023/01/19 00:14:54;;;;;;;3.35;3.10;;;;;;;-0.47;100.00;99803.53;6034849;23;20168;-67
2023/01/19 00:17:21;;;;;;;3.75;3.55;;;;;;;-0.40;100.00;99801.69;6007234;23;20015;-67
2023/01/19 00:19:47;;;;;;;2.85;2.75;;;;;;;-0.39;100.00;99792.22;6033440;23;20638;-68
2023/01/19 00:22:14;;;;;;;3.42;3.22;;;;;;;-0.36;100.00;99797.28;6001516;23;20011;-67
2023/01/19 00:24:40;;;;;;;4.18;3.95;;;;;;;-0.47;100.00;99794.94;6033471;23;20035;-67
2023/01/19 00:27:07;;;;;;;5.53;3.90;;;;;;;-0.41;100.00;99802.56;6006999;23;20090;-67
2023/01/19 00:29:34;;;;;;;2.58;2.47;;;;;;;-1.61;100.00;99606.75;6006090;23;20027;-67
2023/01/19 00:32:02;;;;;;;3.45;3.25;;;;;;;-0.50;100.00;99798.44;6025674;23;20015;-68
2023/01/19 00:34:35;;;;;;;3.35;3.22;;;;;;;-1.13;100.00;99694.13;6003592;23;20086;-68
2023/01/19 00:37:03;;;;;;;3.58;3.38;;;;;;;-0.52;100.00;99800.22;6002017;23;20691;-67
2023/01/19 00:39:29;;;;;;;2.72;2.63;;;;;;;-1.15;100.00;99713.09;6001089;23;20049;-66
2023/01/19 00:44:40;;;;;;;2.85;2.75;;;;;;;-0.53;100.00;99802.81;6035039;23;20665;-68
2023/01/19 00:47:07;;;;;;;3.08;2.97;;;;;;;-0.83;100.00;99766.50;6022625;23;20328;-66
2023/01/19 00:49:34;;;;;;;3.45;3.25;;;;;;;-2.05;100.00;99560.44;6006649;23;20497;-66
2023/01/19 00:52:00;;;;;;;3.90;3.60;;;;;;;-0.59;100.00;99793.47;6028416;23;20188;-66
2023/01/19 00:54:26;;;;;;;3.40;3.20;;;;;;;-0.54;100.00;99793.38;5972621;23;20105;-67
2023/01/19 00:56:53;;;;;;;3.10;3.00;;;;;;;-0.62;100.00;99794.41;6029418;23;20026;-67
2023/01/19 00:59:19;;;;;;;4.85;4.53;;;;;;;-0.63;100.00;99802.16;6020000;23;20099;-65
2023/01/19 01:01:46;;;;;;;3.30;3.20;;;;;;;-0.69;100.00;99799.72;6014602;23;20030;-67
2023/01/19 01:04:13;;;;;;;3.10;2.90;;;;;;;-1.15;100.00;99720.81;6030466;23;20022;-66
2023/01/19 01:06:39;;;;;;;3.30;3.13;;;;;;;-0.75;100.00;99787.78;6001612;23;20106;-66
2023/01/19 01:09:10;;;;;;;3.58;3.38;;;;;;;-0.62;100.00;99796.13;6030436;23;20023;-66
2023/01/19 01:11:41;;;;;;;3.53;3.17;;;;;;;-0.62;100.00;99809.03;6006234;23;20030;-66
2023/01/19 01:14:09;;;;;;;2.83;2.72;;;;;;;-0.59;100.00;99793.47;6028592;23;20307;-66
2023/01/19 01:16:36;;;;;;;7.65;3.65;;;;;;;-0.77;100.00;99770.69;6005640;23;20085;-66
2023/01/19 01:19:02;;;;;;;3.00;2.90;;;;;;;-0.52;100.00;99789.91;6029865;23;20426;-67
2023/01/19 01:21:29;;;;;;;3.30;3.20;;;;;;;-1.10;100.00;99716.38;6003023;23;20759;-66
2023/01/19 01:23:55;;;;;;;3.22;3.03;;;;;;;-2.29;100.00;99540.34;6032602;23;20570;-67
2023/01/19 01:26:22;;;;;;;4.03;3.83;;;;;;;-1.01;100.00;99762.56;6005243;23;20117;-67
2023/01/19 01:28:49;;;;;;;3.92;3.53;;;;;;;-0.99;100.00;99753.09;6029956;23;20493;-67
2023/01/19 01:31:15;;;;;;;3.30;3.20;;;;;;;-0.59;100.00;99806.38;6029058;23;20449;-66
2023/01/19 01:33:42;;;;;;;3.25;3.13;;;;;;;-0.54;100.00;99816.56;6029006;23;20026;-66
2023/01/19 01:36:10;;;;;;;3.65;3.47;;;;;;;-0.86;100.00;99764.84;6003809;23;20266;-67
2023/01/19 01:38:39;;;;;;;3.35;3.15;;;;;;;-0.95;100.00;99717.81;6028771;23;20203;-67
2023/01/19 01:41:06;;;;;;;3.10;3.00;;;;;;;-0.83;100.00;99754.47;5979152;23;20017;-67
2023/01/19 01:43:57;;;;;;;3.17;3.05;;;;;;;-0.47;100.00;99820.72;6027403;23;20318;-67
2023/01/19 01:46:25;;;;;;;3.88;3.58;;;;;;;-0.51;100.00;99807.06;6027163;23;20014;-66
2023/01/19 01:49:13;;;;;;;3.00;2.90;;;;;;;-0.54;100.00;99811.41;6020560;23;20094;-65
2023/01/19 01:51:47;;;;;;;3.95;3.35;;;;;;;-0.65;100.00;99798.75;6004977;23;20031;-67
2023/01/19 01:54:31;;;;;;;4.00;3.80;;;;;;;-0.79;100.00;99765.56;6026898;23;20031;-66
2023/01/19 01:57:02;;;;;;;3.03;2.92;;;;;;;-0.53;100.00;99795.09;6004143;23;20018;-66
2023/01/19 01:59:37;;;;;;;2.90;2.80;;;;;;;-0.48;100.00;99809.56;6025675;23;20173;-66
2023/01/19 02:05:02;;;;;;;2.75;2.65;;;;;;;-0.78;100.00;99756.97;6022394;23;20019;-66
2023/01/19 02:13:20;;;;;;;3.38;3.20;;;;;;;-0.54;100.00;99790.78;5996472;23;20020;-65
2023/01/19 02:15:57;;;;;;;3.22;3.03;;;;;;;-0.46;100.00;99796.63;6027670;23;20036;-66
2023/01/19 02:18:26;;;;;;;3.28;3.17;;;;;;;-0.51;100.00;99799.31;6000798;23;20023;-66
2023/01/19 02:20:53;;;;;;;2.83;2.72;;;;;;;-0.53;100.00;99810.53;6022040;23;20206;-66
2023/01/19 02:23:46;;;;;;;3.72;3.53;;;;;;;-2.08;100.00;99568.25;6002773;23;20391;-66
2023/01/19 02:26:17;;;;;;;3.63;3.42;;;;;;;-0.59;100.00;99806.38;6006322;23;20021;-66
2023/01/19 02:28:49;;;;;;;3.05;2.95;;;;;;;-0.62;100.00;99806.44;6002358;23;20027;-67
2023/01/19 02:31:16;;;;;;;3.95;3.65;;;;;;;-0.64;100.00;99805.63;6035345;23;20106;-66
2023/01/19 02:33:43;;;;;;;3.55;3.35;;;;;;;-0.71;100.00;99801.47;6037244;23;20030;-67
2023/01/19 02:36:12;;;;;;;3.42;3.13;;;;;;;-1.14;100.00;99730.22;6007809;23;20498;-66
2023/01/19 02:38:40;;;;;;;3.35;3.25;;;;;;;-0.76;100.00;99796.41;6042321;23;20016;-67
2023/01/19 02:41:10;;;;;;;3.35;3.25;;;;;;;-0.98;100.00;99770.25;6011881;23;20199;-65
2023/01/19 02:43:37;;;;;;;2.90;2.80;;;;;;;-1.43;100.00;99699.00;5988867;23;20084;-66
2023/01/19 02:46:04;;;;;;;3.13;3.03;;;;;;;-0.76;100.00;99829.91;6038333;23;20023;-66
2023/01/19 02:48:30;;;;;;;3.22;3.13;;;;;;;-1.11;100.00;99749.03;6036043;23;20026;-66
2023/01/19 02:51:03;;;;;;;3.10;3.00;;;;;;;-0.82;100.00;99805.13;6029537;23;20082;-66
2023/01/19 02:53:48;;;;;;;2.90;2.80;;;;;;;-0.80;100.00;99810.25;6039095;23;20030;-67
2023/01/19 02:56:42;;;;;;;3.10;3.00;;;;;;;-0.85;100.00;99797.44;6010666;23;20029;-66
2023/01/19 02:59:31;;;;;;;3.15;3.00;;;;;;;-0.76;100.00;99795.53;6007143;23;20012;-67
2023/01/19 03:02:11;;;;;;;2.97;2.88;;;;;;;-0.69;100.00;99797.97;6036099;23;20042;-65
2023/01/19 03:05:07;;;;;;;2.90;2.80;;;;;;;-0.73;100.00;99778.31;6036233;23;20022;-67
2023/01/19 03:07:36;;;;;;;3.38;3.17;;;;;;;-0.58;100.00;99784.00;6015637;23;20026;-65
2023/01/19 03:10:44;;;;;;;3.20;3.00;;;;;;;-0.93;100.00;99765.84;6033713;23;20025;-67
2023/01/19 03:13:40;;;;;;;2.65;2.55;;;;;;;-0.66;100.00;99782.47;6037511;23;20094;-66
2023/01/19 03:16:20;;;;;;;3.00;2.90;;;;;;;-0.68;100.00;99773.91;6006924;23;20053;-67
2023/01/19 03:18:55;;;;;;;2.60;2.50;;;;;;;-1.04;100.00;99730.00;6034558;23;20038;-67
2023/01/19 03:21:26;;;;;;;3.38;3.17;;;;;;;-0.59;100.00;99774.59;6030379;23;20033;-67
2023/01/19 03:23:57;;;;;;;3.55;3.35;;;;;;;-0.92;100.00;99728.91;6031270;23;20491;-66
2023/01/19 03:26:29;;;;;;;4.00;3.65;;;;;;;-1.00;100.00;99720.50;5985499;23;20035;-68
2023/01/19 03:28:59;;;;;;;3.00;2.90;;;;;;;-1.83;100.00;99578.03;6029234;23;20026;-67
2023/01/19 03:31:27;;;;;;;3.72;3.53;;;;;;;-0.50;100.00;99793.28;6009689;23;20036;-66
2023/01/19 03:33:58;;;;;;;3.55;3.35;;;;;;;-0.54;100.00;99793.38;6032596;23;20098;-67
2023/01/19 03:36:34;;;;;;;3.10;3.00;;;;;;;-1.05;100.00;99701.72;6040625;23;21275;-67
2023/01/19 03:39:04;;;;;;;3.03;2.92;;;;;;;-0.44;100.00;99798.31;6019735;23;20022;-68
2023/01/19 03:41:33;;;;;;;3.05;2.90;;;;;;;-0.40;100.00;99786.22;6011341;23;20086;-67
2023/01/19 03:44:00;;;;;;;2.92;2.83;;;;;;;-0.90;100.00;99709.13;6037144;23;20039;-68
2023/01/19 03:46:27;;;;;;;3.25;3.05;;;;;;;-0.82;100.00;99722.69;5979522;23;20674;-70
2023/01/19 03:48:54;;;;;;;3.65;3.45;;;;;;;-0.27;100.00;99786.78;6035679;23;20073;-67
2023/01/19 03:51:20;;;;;;;3.40;3.20;;;;;;;-0.12;100.00;99801.03;6011794;23;20081;-67
2023/01/19 03:53:49;;;;;;;2.97;2.80;;;;;;;-0.55;100.00;99737.56;6031793;23;20082;-68
2023/01/19 03:56:18;;;;;;;6.97;3.55;;;;;;;-0.03;100.00;99808.59;6031233;23;20015;-66
2023/01/19 03:58:45;;;;;;;2.75;2.65;;;;;;;-0.08;100.00;99808.69;6023544;23;20015;-67
2023/01/19 04:01:13;;;;;;;3.00;2.90;;;;;;;0.00;100.00;99821.41;6012419;23;20039;-67
2023/01/19 04:03:41;;;;;;;2.85;2.75;;;;;;;0.06;100.00;99825.56;6015397;23;20027;-68
2023/01/19 04:06:08;;;;;;;2.80;2.70;;;;;;;-0.30;100.00;99758.47;6007861;23;20518;-68
2023/01/19 04:08:35;;;;;;;3.13;3.03;;;;;;;-0.03;100.00;99791.38;6033914;23;20596;-67
2023/01/19 04:11:02;;;;;;;4.05;3.75;;;;;;;-0.22;100.00;99765.16;6007216;23;20086;-67
2023/01/19 04:13:29;;;;;;;3.63;3.42;;;;;;;0.30;100.00;99837.91;6034840;23;20442;-67
2023/01/19 04:16:03;;;;;;;4.15;3.85;;;;;;;0.45;100.00;99847.00;5986117;23;20019;-67
2023/01/19 04:18:31;;;;;;;2.80;2.70;;;;;;;0.49;100.00;99834.88;6007770;23;20079;-67
2023/01/19 04:21:05;;;;;;;3.00;2.90;;;;;;;0.50;100.00;99833.97;6029207;23;20084;-67
2023/01/19 04:23:32;;;;;;;3.30;3.20;;;;;;;0.52;100.00;99838.25;6032363;23;20019;-68
2023/01/19 04:26:01;;;;;;;2.70;2.60;;;;;;;0.53;100.00;99828.75;6022332;23;20231;-68
2023/01/19 04:28:28;;;;;;;3.03;2.92;;;;;;;0.58;100.00;99829.47;6028990;23;20037;-67
2023/01/19 04:30:55;;;;;;;2.90;2.80;;;;;;;0.08;100.00;99738.66;5986170;23;20231;-69
2023/01/19 04:33:22;;;;;;;3.10;3.00;;;;;;;0.57;100.00;99841.53;6031363;23;20506;-70
2023/01/19 04:35:50;;;;;;;5.25;4.75;;;;;;;0.61;100.00;99864.72;6035422;23;20285;-69
2023/01/19 04:38:20;;;;;;;5.18;4.78;;;;;;;0.23;100.00;99783.91;6037397;23;20201;-70
2023/01/19 04:40:48;;;;;;;3.40;3.28;;;;;;;0.18;100.00;99763.34;6029128;23;20038;-70
2023/01/19 04:43:15;;;;;;;5.20;3.83;;;;;;;0.59;100.00;99838.91;6040453;23;20034;-69
2023/01/19 04:45:43;;;;;;;4.32;4.03;;;;;;;0.50;100.00;99818.50;6011684;23;20054;-69
2023/01/19 04:48:10;;;;;;;3.17;2.97;;;;;;;0.40;100.00;99812.69;5976089;23;20039;-71
2023/01/19 04:50:38;;;;;;;3.88;3.67;;;;;;;0.43;100.00;99827.28;6031209;23;20424;-70
2023/01/19 04:53:04;;;;;;;3.50;3.30;;;;;;;0.26;100.00;99776.06;5978686;23;20066;-71
2023/01/19 04:55:31;;;;;;;4.07;3.88;;;;;;;0.03;100.00;99722.47;6029989;23;20242;-69
2023/01/19 04:57:57;;;;;;;2.90;2.80;;;;;;;0.39;100.00;99774.88;6027482;23;20092;-69
2023/01/19 05:00:25;;;;;;;4.13;3.92;;;;;;;0.62;100.00;99804.41;6031181;23;20027;-70
2023/01/19 05:02:52;;;;;;;2.92;2.83;;;;;;;0.87;100.00;99840.81;6025129;23;20597;-71
2023/01/19 05:05:19;;;;;;;3.10;3.00;;;;;;;0.89;100.00;99846.78;6000686;23;20014;-71
2023/01/19 05:07:45;;;;;;;3.90;3.60;;;;;;;0.79;100.00;99857.34;6034741;23;20442;-70
2023/01/19 05:10:12;;;;;;;3.60;3.40;;;;;;;0.75;100.00;99884.13;5998938;23;20015;-70
2023/01/19 05:12:38;;;;;;;4.07;3.70;;;;;;;0.62;100.00;99854.31;6028740;23;20014;-70
2023/01/19 05:15:08;;;;;;;3.17;3.08;;;;;;;0.37;100.00;99844.59;5998532;23;20047;-73
2023/01/19 05:17:35;;;;;;;3.63;3.42;;;;;;;0.31;100.00;99860.25;6032956;23;20265;-69
2023/01/19 05:20:03;;;;;;;4.13;3.00;;;;;;;0.19;100.00;99860.53;5972955;23;20510;-70
2023/01/19 05:22:29;;;;;;;4.40;4.20;;;;;;;0.12;100.00;99840.91;6019823;23;20019;-70
2023/01/19 05:24:57;;;;;;;3.42;3.22;;;;;;;-0.28;100.00;99813.44;6001855;23;20039;-70
2023/01/19 05:27:23;;;;;;;3.58;3.38;;;;;;;-0.02;100.00;99821.44;6027821;23;20059;-71
2023/01/19 05:29:50;;;;;;;2.97;2.88;;;;;;;-0.53;100.00;99746.97;5996041;23;20473;-69
2023/01/19 05:32:16;;;;;;;3.20;3.00;;;;;;;-1.46;100.00;99600.47;6032718;23;20043;-70
2023/01/19 05:34:42;;;;;;;3.38;3.20;;;;;;;0.11;100.00;99846.97;6019759;23;20109;-70
2023/01/19 05:37:09;;;;;;;3.55;3.35;;;;;;;-0.10;100.00;99833.66;6013804;23;20010;-70
2023/01/19 05:39:36;;;;;;;5.50;3.75;;;;;;;-0.35;100.00;99788.69;6031256;23;20027;-70
2023/01/19 05:42:02;;;;;;;3.13;3.03;;;;;;;-0.15;100.00;99824.34;6026975;23;20412;-70
2023/01/19 05:44:29;;;;;;;3.78;3.50;;;;;;;-0.43;100.00;99769.06;6009320;23;20026;-70
2023/01/19 05:46:55;;;;;;;2.78;2.67;;;;;;;-0.09;100.00;99824.19;6002002;23;20130;-70
2023/01/19 05:49:22;;;;;;;4.18;3.88;;;;;;;-0.29;100.00;99794.53;6024642;23;20434;-69
2023/01/19 05:51:48;;;;;;;3.00;2.90;;;;;;;-0.08;100.00;99826.75;6035532;23;20116;-69
2023/01/19 05:54:15;;;;;;;4.30;4.00;;;;;;;-0.25;100.00;99811.63;6003026;23;20453;-69
2023/01/19 05:56:42;;;;;;;3.55;3.38;;;;;;;-0.12;100.00;99819.09;6030887;23;20041;-70
2023/01/19 05:59:09;;;;;;;3.65;3.45;;;;;;;-0.14;100.00;99816.56;6008191;23;20031;-70
2023/01/19 06:01:37;;;;;;;3.75;3.58;;;;;;;-0.23;100.00;99802.13;6015949;23;20176;-71
2023/01/19 06:04:05;;;;;;;4.68;4.28;;;;;;;-0.41;100.00;99780.19;6005731;23;20034;-70
2023/01/19 06:06:31;;;;;;;3.72;3.53;;;;;;;-0.19;100.00;99820.97;6035766;23;20083;-71
2023/01/19 06:08:58;;;;;;;6.97;3.55;;;;;;;-0.41;100.00;99785.34;6013170;23;20569;-71
2023/01/19 06:11:25;;;;;;;4.13;3.92;;;;;;;-0.18;100.00;99824.41;6038195;23;20027;-70
2023/01/19 06:13:51;;;;;;;4.38;4.07;;;;;;;-0.12;100.00;99825.13;6006920;23;20026;-70
2023/01/19 06:16:18;;;;;;;4.43;4.03;;;;;;;-0.14;100.00;99824.31;6043261;23;20011;-70
2023/01/19 06:18:44;;;;;;;3.22;3.10;;;;;;;-0.35;100.00;99799.00;6009265;23;20211;-70
2023/01/19 06:21:13;;;;;;;4.00;3.78;;;;;;;-0.16;100.00;99826.06;6038505;23;20170;-70
2023/01/19 06:23:39;;;;;;;2.97;2.88;;;;;;;-1.07;100.00;99668.25;6005666;23;20454;-69
2023/01/19 06:26:06;;;;;;;3.10;3.00;;;;;;;-0.08;100.00;99825.88;6030288;23;20524;-70
2023/01/19 06:28:32;;;;;;;3.58;3.38;;;;;;;-1.56;100.00;99574.09;6006939;23;20575;-70
2023/01/19 06:30:59;;;;;;;2.83;2.72;;;;;;;-0.56;100.00;99744.47;6030817;23;20530;-70
2023/01/19 06:33:26;;;;;;;2.97;2.88;;;;;;;-0.18;100.00;99860.50;6033357;23;20034;-70
2023/01/19 06:35:54;;;;;;;3.13;3.03;;;;;;;-0.51;100.00;99760.66;6007631;23;20174;-70
2023/01/19 06:38:20;;;;;;;3.45;3.28;;;;;;;-0.09;100.00;99839.66;6040868;23;20034;-70
2023/01/19 06:40:57;;;;;;;3.53;3.40;;;;;;;-0.08;100.00;99843.94;6016885;23;20022;-70
2023/01/19 06:43:25;;;;;;;3.03;2.92;;;;;;;-0.07;100.00;99843.91;6038907;23;20148;-70
2023/01/19 06:45:51;;;;;;;3.00;2.90;;;;;;;-0.70;100.00;99724.16;6006312;23;20023;-70
2023/01/19 06:48:18;;;;;;;3.25;3.13;;;;;;;-0.06;100.00;99835.31;6010665;23;20157;-70
2023/01/19 06:50:45;;;;;;;3.05;2.92;;;;;;;-0.25;100.00;99811.63;5975812;23;20050;-71
2023/01/19 06:53:12;;;;;;;3.40;3.17;;;;;;;-0.64;100.00;99751.53;6030655;23;20581;-70
2023/01/19 06:55:39;;;;;;;3.17;3.08;;;;;;;-0.42;100.00;99785.41;6030140;23;20085;-70
2023/01/19 06:58:06;;;;;;;3.08;2.97;;;;;;;0.01;100.00;99866.13;6026055;23;20026;-70
2023/01/19 07:00:32;;;;;;;4.25;3.95;;;;;;;-1.56;100.00;99599.81;6004008;23;20069;-70
2023/01/19 07:02:59;;;;;;;3.58;3.38;;;;;;;-0.31;100.00;99798.03;6033302;23;20471;-70
2023/01/19 07:05:26;;;;;;;3.05;2.95;;;;;;;0.07;100.00;99860.81;6011048;23;20359;-70
2023/01/19 07:07:55;;;;;;;3.97;3.63;;;;;;;0.10;100.00;99864.19;6038547;23;20335;-72
2023/01/19 07:10:24;;;;;;;3.55;3.35;;;;;;;-0.72;100.00;99740.50;6005940;23;20035;-70
2023/01/19 07:13:11;;;;;;;3.38;3.22;;;;;;;0.16;100.00;99881.22;6030698;23;20373;-70
2023/01/19 07:15:37;;;;;;;3.45;3.30;;;;;;;-0.12;100.00;99844.88;6011347;23;20337;-70
2023/01/19 07:18:06;;;;;;;3.38;3.17;;;;;;;0.10;100.00;99876.22;6031570;23;20027;-70
2023/01/19 07:20:33;;;;;;;3.58;3.38;;;;;;;-0.30;100.00;99817.78;6008500;23;20573;-70
2023/01/19 07:23:00;;;;;;;3.00;2.90;;;;;;;0.05;100.00;99878.91;6030904;23;20343;-70
2023/01/19 07:25:28;;;;;;;3.45;3.15;;;;;;;-0.43;100.00;99799.16;6019242;23;20086;-70
2023/01/19 07:27:58;;;;;;;3.80;3.50;;;;;;;0.07;100.00;99881.44;6033269;23;20096;-70
2023/01/19 07:30:25;;;;;;;3.72;3.53;;;;;;;-0.40;100.00;99796.53;5998682;23;20100;-72
2023/01/19 07:32:56;;;;;;;3.03;2.85;;;;;;;0.12;100.00;99877.88;6032032;23;20030;-70
2023/01/19 07:35:25;;;;;;;3.40;3.30;;;;;;;0.17;100.00;99890.69;6012273;23;20074;-71
2023/01/19 07:37:51;;;;;;;3.10;3.00;;;;;;;-0.49;100.00;99783.81;6034188;23;20532;-71
2023/01/19 07:40:18;;;;;;;3.22;3.13;;;;;;;0.19;100.00;99902.66;6032826;23;20034;-70
2023/01/19 07:42:49;;;;;;;3.58;3.38;;;;;;;-0.26;100.00;99832.28;6014457;23;20026;-70
2023/01/19 07:45:17;;;;;;;3.30;3.10;;;;;;;0.18;100.00;99889.78;6016490;23;20023;-71
2023/01/19 07:47:44;;;;;;;3.50;3.30;;;;;;;0.21;100.00;99901.78;6031819;23;20121;-75
2023/01/19 07:50:14;;;;;;;4.15;3.83;;;;;;;0.21;100.00;99904.38;6003177;23;20113;-74
2023/01/19 07:52:41;;;;;;;3.92;3.72;;;;;;;-0.36;100.00;99813.63;6039586;23;20030;-74
2023/01/19 07:55:08;;;;;;;3.47;3.28;;;;;;;0.20;100.00;99906.06;6030476;23;20050;-75
2023/01/19 07:57:35;;;;;;;6.03;4.25;;;;;;;-0.52;100.00;99787.31;6036494;23;20438;-74
2023/01/19 08:00:03;;;;;;;3.80;3.60;;;;;;;0.28;100.00;99929.13;5980339;23;20015;-73
2023/01/19 08:02:32;;;;;;;4.22;3.90;;;;;;;-0.07;100.00;99877.44;6036547;23;20188;-74
2023/01/19 08:04:59;;;;;;;4.95;4.50;;;;;;;0.27;100.00;99928.28;6001258;23;20082;-74
2023/01/19 08:07:25;;;;;;;3.45;3.25;;;;;;;0.05;100.00;99906.44;6041386;23;20173;-74
2023/01/19 08:09:52;;;;;;;3.25;3.08;;;;;;;0.30;100.00;99924.78;6001398;23;20239;-73
2023/01/19 08:12:18;;;;;;;3.35;3.25;;;;;;;-0.17;100.00;99878.50;6002145;23;20026;-74
2023/01/19 08:14:45;;;;;;;3.53;3.38;;;;;;;0.43;100.00;99962.34;6031324;23;20363;-74
2023/01/19 08:17:12;;;;;;;3.50;3.30;;;;;;;-0.03;100.00;99881.63;6000226;23;20527;-74
2023/01/19 08:19:40;;;;;;;3.47;3.38;;;;;;;0.02;100.00;99901.31;5977910;23;20026;-73
2023/01/19 08:22:07;;;;;;;4.15;3.95;;;;;;;-0.86;100.00;99770.00;6038200;23;20374;-76
2023/01/19 08:24:33;;;;;;;3.45;3.25;;;;;;;-0.10;100.00;99880.09;6000363;23;20032;-74
2023/01/19 08:27:02;;;;;;;4.43;4.13;;;;;;;-0.26;100.00;99866.69;6027431;23;20044;-74
2023/01/19 08:29:32;;;;;;;3.60;3.40;;;;;;;0.50;100.00;99991.44;5977111;23;20099;-74
2023/01/19 08:32:01;;;;;;;4.15;3.92;;;;;;;0.49;100.00;100000.94;6031068;23;20045;-73
2023/01/19 08:34:29;;;;;;;4.00;3.75;;;;;;;0.53;100.00;99999.13;6029499;23;20022;-73
2023/01/19 08:36:57;;;;;;;3.38;3.28;;;;;;;-0.32;100.00;99858.22;6027590;23;20019;-74
2023/01/19 08:39:24;;;;;;;4.00;3.78;;;;;;;-0.15;100.00;99884.50;6004496;23;20226;-76
2023/01/19 08:41:51;;;;;;;3.38;3.28;;;;;;;-0.37;100.00;99845.41;6004580;23;20033;-73
2023/01/19 08:44:17;;;;;;;3.47;3.28;;;;;;;0.59;100.00;100006.75;6005923;23;20023;-73
2023/01/19 08:46:44;;;;;;;3.55;3.33;;;;;;;0.34;100.00;99967.69;6027465;23;20197;-74
2023/01/19 08:49:10;;;;;;;4.45;3.85;;;;;;;0.64;100.00;100007.47;6021538;23;20309;-73
2023/01/19 08:51:37;;;;;;;3.75;3.55;;;;;;;0.11;100.00;99926.94;6021296;23;20587;-74
2023/01/19 08:54:03;;;;;;;3.17;2.97;;;;;;;-0.19;100.00;99864.81;6005828;23;20101;-73
2023/01/19 08:56:30;;;;;;;3.38;3.17;;;;;;;0.76;100.00;100008.94;6032482;23;20080;-72
2023/01/19 08:58:56;;;;;;;6.72;4.93;;;;;;;-0.46;100.00;99814.66;6025757;23;20014;-72
2023/01/19 09:01:35;;;;;;;3.63;3.42;;;;;;;0.79;100.00;100016.63;6005697;23;20407;-76
2023/01/19 09:04:02;;;;;;;3.78;3.58;;;;;;;0.16;100.00;99927.66;6001087;23;20015;-73
2023/01/19 09:06:29;;;;;;;5.35;4.03;;;;;;;0.86;100.00;100015.56;6031943;23;20023;-72
2023/01/19 09:08:56;;;;;;;4.43;4.13;;;;;;;0.82;100.00;100032.03;6002741;23;20003;-72
2023/01/19 09:11:22;;;;;;;3.92;3.60;;;;;;;0.92;100.00;100028.38;6031186;23;20086;-71
2023/01/19 09:13:49;;;;;;;4.50;4.15;;;;;;;1.02;100.00;100028.97;6015137;23;20058;-72
2023/01/19 09:16:16;;;;;;;4.93;4.45;;;;;;;0.08;100.00;99870.22;6028990;23;20262;-73
2023/01/19 09:18:44;;;;;;;3.55;3.40;;;;;;;0.49;100.00;99948.47;6008471;23;20053;-72
2023/01/19 09:21:11;;;;;;;4.90;4.15;;;;;;;1.20;100.00;100038.03;6024520;23;20065;-72
2023/01/19 09:23:37;;;;;;;5.20;4.80;;;;;;;0.93;100.00;100006.81;6030683;23;20698;-72
2023/01/19 09:26:05;;;;;;;5.22;4.75;;;;;;;1.16;100.00;100045.03;6002730;23;20037;-72
2023/01/19 09:28:32;;;;;;;4.13;3.70;;;;;;;1.23;100.00;100047.47;6004672;23;20238;-71
2023/01/19 09:31:04;;;;;;;11.95;4.60;;;;;;;0.73;100.00;99957.38;6006135;23;20370;-71
2023/01/19 09:33:30;;;;;;;4.63;4.27;;;;;;;0.92;100.00;99981.88;6005377;23;20526;-72
2023/01/19 09:35:57;;;;;;;3.75;3.53;;;;;;;1.57;100.00;100053.47;6027060;23;20022;-71
2023/01/19 09:38:24;;;;;;;5.25;4.95;;;;;;;1.47;100.00;100057.19;6031357;23;20051;-71
2023/01/19 09:40:55;;;;;;;4.22;4.03;;;;;;;1.50;100.00;100057.09;5995617;23;20027;-72
2023/01/19 09:43:33;;;;;;;4.82;4.53;;;;;;;1.55;100.00;100064.75;6030035;23;20568;-72
2023/01/19 09:46:02;;;;;;;7.95;5.38;;;;;;;1.33;100.00;100038.59;6001016;23;20096;-70
2023/01/19 09:48:45;;;;;;;3.85;3.65;;;;;;;1.59;100.00;100072.41;6004638;23;20038;-70
2023/01/19 09:51:24;;;;;;;5.38;4.75;;;;;;;1.50;100.00;100072.63;6034023;23;20457;-71
2023/01/19 09:54:18;;;;;;;5.60;4.25;;;;;;;1.50;100.00;100088.13;5996666;23;20426;-71
2023/01/19 09:56:47;;;;;;;5.32;4.82;;;;;;;1.13;100.00;100036.50;6019341;23;20034;-69
2023/01/19 09:59:29;;;;;;;6.28;5.65;;;;;;;1.49;100.00;100091.63;6011791;23;20727;-74
2023/01/19 10:02:26;;;;;;;5.88;5.35;;;;;;;1.06;100.00;100061.63;6031093;23;20577;-70
2023/01/19 10:05:21;;;;;;;3.85;3.65;;;;;;;1.42;100.00;100105.56;6030929;23;20014;-73
2023/01/19 10:08:05;;;;;;;4.07;3.88;;;;;;;0.98;100.00;100058.34;6013169;23;21407;-78
2023/01/19 10:10:33;;;;;;;6.55;5.70;;;;;;;1.51;100.00;100104.50;6004332;23;20432;-78
2023/01/19 10:13:11;;;;;;;4.75;4.35;;;;;;;1.37;100.00;100117.78;6010270;23;20042;-71
2023/01/19 10:15:59;;;;;;;4.90;4.50;;;;;;;1.45;100.00;100110.69;6003446;23;20606;-72
2023/01/19 10:18:31;;;;;;;3.85;3.65;;;;;;;0.44;100.00;99933.09;6027038;23;20171;-75
2023/01/19 10:21:04;;;;;;;5.13;3.97;;;;;;;1.21;100.00;100041.50;6004999;23;20536;-76
2023/01/19 10:23:43;;;;;;;11.32;4.38;;;;;;;1.50;100.00;100111.41;6002014;23;20099;-78
2023/01/19 10:26:17;;;;;;;3.55;3.35;;;;;;;1.31;100.00;100084.31;6027899;23;20014;-77
2023/01/19 10:28:48;;;;;;;6.05;5.28;;;;;;;0.32;100.00;99892.91;6044762;23;20082;-76
2023/01/19 10:31:17;;;;;;;8.50;4.30;;;;;;;1.55;100.00;100122.50;5989701;23;20054;-74
2023/01/19 10:33:44;;;;;;;3.63;3.42;;;;;;;1.08;100.00;100044.34;6028582;23;20107;-75
2023/01/19 10:36:32;;;;;;;5.03;4.55;;;;;;;0.98;100.00;100025.66;6023712;23;20030;-72
2023/01/19 10:38:59;;;;;;;6.05;3.92;;;;;;;1.39;100.00;100103.06;6011204;23;20081;-72
2023/01/19 10:41:41;;;;;;;15.05;7.38;;;;;;;1.30;100.00;100069.69;6023039;23;20047;-75
2023/01/19 10:44:09;;;;;;;15.60;7.85;;;;;;;1.66;100.00;100126.56;6026777;23;20019;-70
2023/01/19 10:46:47;;;;;;;9.95;6.43;;;;;;;1.71;100.00;100143.66;6026532;23;20043;-70
2023/01/19 10:49:25;;;;;;;13.70;6.88;;;;;;;1.78;100.00;100139.19;6028987;23;20176;-70
2023/01/19 10:51:53;;;;;;;9.95;9.00;;;;;;;1.57;100.00;100104.38;6010404;23;20493;-71
2023/01/19 10:54:20;;;;;;;7.90;7.00;;;;;;;1.54;100.00;100109.59;6032344;23;20023;-73
2023/01/19 10:56:56;;;;;;;7.00;6.40;;;;;;;1.85;100.00;100138.16;6005231;23;20188;-75
2023/01/19 10:59:30;;;;;;;10.82;7.70;;;;;;;1.36;100.00;100077.28;6025773;23;20119;-74
2023/01/19 11:02:17;;;;;;;6.50;5.85;;;;;;;1.66;100.00;100135.16;6002624;23;20099;-74
2023/01/19 11:04:45;;;;;;;4.38;4.10;;;;;;;1.90;100.00;100136.28;6028021;23;20019;-72
2023/01/19 11:07:21;;;;;;;5.07;4.28;;;;;;;2.12;100.00;100143.50;6016274;23;20095;-73
2023/01/19 11:09:49;;;;;;;4.97;4.57;;;;;;;1.48;100.00;100052.88;6032501;23;20021;-75
2023/01/19 11:12:20;;;;;;;5.03;4.63;;;;;;;1.42;100.00;100048.69;6013280;23;20024;-78
2023/01/19 11:14:49;;;;;;;4.82;4.43;;;;;;;1.91;100.00;100112.13;6037579;23;20040;-76
2023/01/19 11:17:22;;;;;;;4.50;4.05;;;;;;;2.69;100.00;100157.50;6035531;23;20094;-72
2023/01/19 11:19:55;;;;;;;5.32;5.00;;;;;;;2.70;100.00;100151.41;6032144;23;20641;-76
2023/01/19 11:22:26;;;;;;;5.25;4.82;;;;;;;2.02;100.00;100036.78;6035575;23;20058;-76
2023/01/19 11:24:58;;;;;;;11.00;4.97;;;;;;;2.47;100.00;100108.88;6039036;23;20026;-78
2023/01/19 11:27:25;;;;;;;5.32;4.93;;;;;;;0.90;100.00;99875.16;6007277;23;20035;-76
2023/01/19 11:30:09;;;;;;;5.43;5.05;;;;;;;1.99;100.00;100061.00;6035131;23;20056;-77
2023/01/19 11:32:36;;;;;;;6.55;4.90;;;;;;;2.50;100.00;100162.31;6010491;23;20035;-75
2023/01/19 11:35:34;;;;;;;4.57;4.28;;;;;;;1.37;100.00;100004.03;6040780;23;20003;-74
2023/01/19 11:38:19;;;;;;;15.60;4.03;;;;;;;2.31;100.00;100165.41;6037125;23;20021;-74
2023/01/19 11:40:51;;;;;;;5.43;5.10;;;;;;;2.12;100.00;100159.03;6036233;23;20034;-76
2023/01/19 11:43:20;;;;;;;6.20;5.70;;;;;;;2.43;100.00;100166.84;6012377;23;20037;-75
2023/01/19 11:45:46;;;;;;;5.75;5.30;;;;;;;1.77;100.00;100059.88;6039011;23;20037;-75
2023/01/19 11:48:38;;;;;;;4.80;4.43;;;;;;;2.38;100.00;100141.03;6007235;23;20043;-75
2023/01/19 11:51:12;;;;;;;4.70;4.43;;;;;;;1.97;100.00;100062.78;6034457;23;20080;-75